<?xml version="1.0" encoding="utf-8"?>
<gpx xmlns:xsi="http://www.w3.org/2001/XMLSchema-instance" xmlns:xsd="http://www.w3.org/2001/XMLSchema" version="1.1" creator="Shapelink.com" xmlns="http://www.topografix.com/GPX/1/1" xmlns:gpxtpx="http://www.garmin.com/xmlschemas/TrackPointExtension/v1">
  <metadata>
    <name>Övrigt 1.50 km, 2020-06-28</name>
    <desc></desc>
    <author><name>Marian Moron</name></author> 
    <time>2020-06-28T19:46:34Z</time>
  </metadata>
  <trk>
    <name>Övrigt 1.50 km, 2020-06-28</name>
    <trkseg>
      <trkpt lat="51.229751022792" lon="4.458064892114">
        <ele>0</ele>
        <time>2020-06-28T19:46:34Z</time>
      </trkpt>
      <trkpt lat="51.22999510372" lon="4.458184334189">
        <ele>0</ele>
        <time>2020-06-28T19:46:55Z</time>
      </trkpt>
      <trkpt lat="51.23001102933" lon="4.458182993085">
        <ele>0</ele>
        <time>2020-06-28T19:47:19Z</time>
      </trkpt>
      <trkpt lat="51.23006970263" lon="4.458850862877">
        <ele>0</ele>
        <time>2020-06-28T19:47:56Z</time>
      </trkpt>
      <trkpt lat="51.230425262828" lon="4.458730582612">
        <ele>1.4</ele>
        <time>2020-06-28T19:48:41Z</time>
      </trkpt>
      <trkpt lat="51.23052148704" lon="4.458854970008">
        <ele>3.6</ele>
        <time>2020-06-28T19:49:08Z</time>
      </trkpt>
      <trkpt lat="51.230483936128" lon="4.459082538593">
        <ele>3.8</ele>
        <time>2020-06-28T19:49:34Z</time>
      </trkpt>
      <trkpt lat="51.230593822837" lon="4.459709169437">
        <ele>4</ele>
        <time>2020-06-28T19:50:40Z</time>
      </trkpt>
      <trkpt lat="51.230665236625" lon="4.460401765834">
        <ele>5.8</ele>
        <time>2020-06-28T19:51:43Z</time>
      </trkpt>
      <trkpt lat="51.230651155033" lon="4.460684068226">
        <ele>3.6</ele>
        <time>2020-06-28T19:52:13Z</time>
      </trkpt>
      <trkpt lat="51.230363739682" lon="4.460855226624">
        <ele>3.6</ele>
        <time>2020-06-28T19:52:43Z</time>
      </trkpt>
      <trkpt lat="51.229915978584" lon="4.460983050599">
        <ele>7.8</ele>
        <time>2020-06-28T19:53:21Z</time>
      </trkpt>
      <trkpt lat="51.229835344706" lon="4.461283541714">
        <ele>7.8</ele>
        <time>2020-06-28T19:54:11Z</time>
      </trkpt>
      <trkpt lat="51.230030810614" lon="4.461932133136">
        <ele>5.8</ele>
        <time>2020-06-28T19:55:00Z</time>
      </trkpt>
      <trkpt lat="51.230042796731" lon="4.461960631596">
        <ele>5.4</ele>
        <time>2020-06-28T19:55:02Z</time>
      </trkpt>
      <trkpt lat="51.230069786449" lon="4.462146793595">
        <ele>0</ele>
        <time>2020-06-28T19:55:19Z</time>
      </trkpt>
      <trkpt lat="51.230150587965" lon="4.462756660639">
        <ele>3.6</ele>
        <time>2020-06-28T19:56:00Z</time>
      </trkpt>
      <trkpt lat="51.230020500877" lon="4.462974254763">
        <ele>2.2</ele>
        <time>2020-06-28T19:57:04Z</time>
      </trkpt>
      <trkpt lat="51.229964006871" lon="4.462982720482">
        <ele>2</ele>
        <time>2020-06-28T19:57:10Z</time>
      </trkpt>
      <trkpt lat="51.229899633879" lon="4.462984732138">
        <ele>1</ele>
        <time>2020-06-28T19:57:38Z</time>
      </trkpt>
      <trkpt lat="51.229470815875" lon="4.46304491418">
        <ele>0.6</ele>
        <time>2020-06-28T19:58:23Z</time>
      </trkpt>
      <trkpt lat="51.229404850322" lon="4.463050110958">
        <ele>1.2</ele>
        <time>2020-06-28T19:58:29Z</time>
      </trkpt>
      <trkpt lat="51.229199409953" lon="4.462925220648">
        <ele>5</ele>
        <time>2020-06-28T19:59:02Z</time>
      </trkpt>
      <trkpt lat="51.229174599529" lon="4.462835282861">
        <ele>13.8</ele>
        <time>2020-06-28T20:00:04Z</time>
      </trkpt>
      <trkpt lat="51.229185915094" lon="4.463169385395">
        <ele>9.4</ele>
        <time>2020-06-28T20:00:30Z</time>
      </trkpt>
      <trkpt lat="51.229243582566" lon="4.463825520527">
        <ele>3.6</ele>
        <time>2020-06-28T20:01:10Z</time>
      </trkpt>
      <trkpt lat="51.229259508176" lon="4.464095585345">
        <ele>6.2</ele>
        <time>2020-06-28T20:01:24Z</time>
      </trkpt>
      <trkpt lat="51.22923737996" lon="4.464148391315">
        <ele>6</ele>
        <time>2020-06-28T20:01:27Z</time>
      </trkpt>
      <trkpt lat="51.229120200998" lon="4.463856617376">
        <ele>1</ele>
        <time>2020-06-28T20:02:28Z</time>
      </trkpt>
      <trkpt lat="51.229111400003" lon="4.463719740949">
        <ele>0.6</ele>
        <time>2020-06-28T20:02:38Z</time>
      </trkpt>
      <trkpt lat="51.229084326466" lon="4.463633072103">
        <ele>0.6</ele>
        <time>2020-06-28T20:02:45Z</time>
      </trkpt>
      <trkpt lat="51.22891216224" lon="4.463576075183">
        <ele>6.2</ele>
        <time>2020-06-28T20:03:07Z</time>
      </trkpt>
      <trkpt lat="51.228465826065" lon="4.463441713326">
        <ele>3.6</ele>
        <time>2020-06-28T20:03:59Z</time>
      </trkpt>
      <trkpt lat="51.228060142105" lon="4.463206098117">
        <ele>0</ele>
        <time>2020-06-28T20:05:11Z</time>
      </trkpt>
      <trkpt lat="51.227866604034" lon="4.46292924396">
        <ele>8.8</ele>
        <time>2020-06-28T20:05:49Z</time>
      </trkpt>
      <trkpt lat="51.227872387545" lon="4.462204712524">
        <ele>3.6</ele>
        <time>2020-06-28T20:06:44Z</time>
      </trkpt>
      <trkpt lat="51.227868699509" lon="4.46215727097">
        <ele>3.2</ele>
        <time>2020-06-28T20:06:47Z</time>
      </trkpt>
      <trkpt lat="51.227817737557" lon="4.461648405821">
        <ele>2</ele>
        <time>2020-06-28T20:07:27Z</time>
      </trkpt>
      <trkpt lat="51.227867609862" lon="4.461181450172">
        <ele>13.2</ele>
        <time>2020-06-28T20:08:01Z</time>
      </trkpt>
      <trkpt lat="51.227850510786" lon="4.460741148965">
        <ele>10.4</ele>
        <time>2020-06-28T20:08:33Z</time>
      </trkpt>
      <trkpt lat="51.227939526564" lon="4.460506455765">
        <ele>15</ele>
        <time>2020-06-28T20:08:54Z</time>
      </trkpt>
      <trkpt lat="51.227951680319" lon="4.460410399191">
        <ele>13.6</ele>
        <time>2020-06-28T20:09:08Z</time>
      </trkpt>
      <trkpt lat="51.228172794841" lon="4.460255669317">
        <ele>4.2</ele>
        <time>2020-06-28T20:09:47Z</time>
      </trkpt>
      <trkpt lat="51.228349904388" lon="4.459894241789">
        <ele>3.8</ele>
        <time>2020-06-28T20:10:20Z</time>
      </trkpt>
      <trkpt lat="51.228377061744" lon="4.459624679885">
        <ele>6.8</ele>
        <time>2020-06-28T20:10:51Z</time>
      </trkpt>
      <trkpt lat="51.228558110784" lon="4.459128136129">
        <ele>7.4</ele>
        <time>2020-06-28T20:11:45Z</time>
      </trkpt>
      <trkpt lat="51.228541933717" lon="4.458970807866">
        <ele>6.4</ele>
        <time>2020-06-28T20:12:03Z</time>
      </trkpt>
      <trkpt lat="51.22856682796" lon="4.458696719736">
        <ele>6</ele>
        <time>2020-06-28T20:12:27Z</time>
      </trkpt>
      <trkpt lat="51.228577053878" lon="4.458650116372">
        <ele>6.2</ele>
        <time>2020-06-28T20:12:29Z</time>
      </trkpt>
      <trkpt lat="51.228624746889" lon="4.458372759301">
        <ele>7.2</ele>
        <time>2020-06-28T20:12:44Z</time>
      </trkpt>
      <trkpt lat="51.228646036915" lon="4.458304362997">
        <ele>8.2</ele>
        <time>2020-06-28T20:12:50Z</time>
      </trkpt>
      <trkpt lat="51.229093378918" lon="4.458144184888">
        <ele>14.6</ele>
        <time>2020-06-28T20:13:28Z</time>
      </trkpt>
      <trkpt lat="51.229247354421" lon="4.458085679226">
        <ele>16.4</ele>
        <time>2020-06-28T20:13:42Z</time>
      </trkpt>
      <trkpt lat="51.229699055012" lon="4.457984593512">
        <ele>11.4</ele>
        <time>2020-06-28T20:14:28Z</time>
      </trkpt>
      <trkpt lat="51.229701653401" lon="4.458092217108">
        <ele>16</ele>
        <time>2020-06-28T20:15:00Z</time>
      </trkpt>
      <trkpt lat="51.229700731392" lon="4.458096827153">
        <ele>16.4</ele>
        <time>2020-06-28T20:15:01Z</time>
      </trkpt>
    </trkseg>
  </trk>
</gpx>